Time;durP1;ratioP1;P1;durP2;ratioP2;P2;SDS_P1;SDS_P2;PMS_P1;PMS_P2;Temp;Humidity;BMP_temperature;BMP_pressure;BME280_temperature;BME280_humidity;BME280_pressure;Samples;Min_cycle;Max_cycle;Signal;HPM_P1;HPM_P2
2023/01/24 00:01:24;;;;;;;32.53;16.47;;;;;;;-0.87;100.00;103078.88;5062831;22;20774;-73
2023/01/24 00:03:52;;;;;;;29.30;13.90;;;;;;;-0.88;100.00;103071.09;5039531;28;20205;-73
2023/01/24 00:06:18;;;;;;;31.80;15.40;;;;;;;-0.87;100.00;103070.31;5032007;28;20262;-73
2023/01/24 00:08:45;;;;;;;32.73;15.77;;;;;;;-0.87;100.00;103062.63;5025261;28;20207;-73
2023/01/24 00:11:13;;;;;;;30.77;14.60;;;;;;;-0.88;100.00;103059.19;5021570;28;20650;-73
2023/01/24 00:13:40;;;;;;;30.47;16.10;;;;;;;-0.88;100.00;103064.31;5021424;28;20710;-73
2023/01/24 00:16:08;;;;;;;30.27;14.03;;;;;;;-0.90;100.00;103071.00;5038945;23;20599;-75
2023/01/24 00:18:35;;;;;;;30.97;15.77;;;;;;;-0.89;100.00;103070.22;5024812;28;20637;-76
2023/01/24 00:21:04;;;;;;;30.73;15.37;;;;;;;-0.88;100.00;103071.09;5023978;28;20201;-76
2023/01/24 00:23:30;;;;;;;31.73;15.27;;;;;;;-0.87;100.00;103067.75;5018061;28;20196;-75
2023/01/24 00:25:57;;;;;;;30.90;15.00;;;;;;;-0.87;100.00;103070.31;5021923;28;20200;-75
2023/01/24 00:28:23;;;;;;;31.47;15.43;;;;;;;-0.87;100.00;103065.19;5021829;28;20214;-76
2023/01/24 00:30:50;;;;;;;32.23;15.80;;;;;;;-0.89;100.00;103062.53;5022148;28;20549;-75
2023/01/24 00:33:16;;;;;;;31.37;16.30;;;;;;;-0.88;100.00;103055.72;5013281;28;20225;-76
2023/01/24 00:35:42;;;;;;;33.43;15.93;;;;;;;-0.87;100.00;103052.38;5002613;28;20193;-75
2023/01/24 00:38:10;;;;;;;32.63;15.40;;;;;;;-0.88;100.00;103048.03;5019531;28;20196;-76
2023/01/24 00:40:36;;;;;;;31.20;15.27;;;;;;;-0.89;100.00;103051.41;5021456;28;20680;-76
2023/01/24 00:43:03;;;;;;;31.70;16.30;;;;;;;-0.88;100.00;103046.38;5022853;28;20216;-75
2023/01/24 00:45:29;;;;;;;33.20;15.60;;;;;;;-0.88;100.00;103042.91;5004048;28;20244;-74
2023/01/24 00:47:56;;;;;;;32.77;15.47;;;;;;;-0.88;100.00;103048.94;5020334;28;20246;-74
2023/01/24 00:50:22;;;;;;;29.40;15.70;;;;;;;-0.87;100.00;103039.59;5002121;28;20208;-75
2023/01/24 00:52:48;;;;;;;27.17;14.90;;;;;;;-0.86;100.00;103043.88;5000897;28;20217;-76
2023/01/24 00:55:17;;;;;;;29.10;13.97;;;;;;;-0.83;100.00;103038.97;5022058;28;20202;-76
2023/01/24 00:57:43;;;;;;;28.40;14.73;;;;;;;-0.83;100.00;103038.97;5014333;28;20214;-76
2023/01/24 01:00:11;;;;;;;27.37;14.83;;;;;;;-0.84;100.00;103037.22;5003747;28;20534;-76
2023/01/24 01:02:38;;;;;;;30.63;15.30;;;;;;;-0.87;100.00;103040.47;5023336;28;20751;-76
2023/01/24 01:05:05;;;;;;;32.13;16.13;;;;;;;-0.87;100.00;103048.13;5005696;28;21812;-77
2023/01/24 01:07:31;;;;;;;31.77;15.43;;;;;;;-0.84;100.00;103047.44;5023046;28;20203;-75
2023/01/24 01:09:58;;;;;;;37.07;17.33;;;;;;;-0.83;100.00;103046.66;5001624;28;20196;-76
2023/01/24 01:12:26;;;;;;;34.20;15.57;;;;;;;-0.84;100.00;103050.03;5023792;28;20321;-75
2023/01/24 01:14:52;;;;;;;29.40;14.33;;;;;;;-0.84;100.00;103050.03;5025746;28;20227;-75
2023/01/24 01:17:19;;;;;;;29.97;16.07;;;;;;;-0.84;100.00;103050.03;5022708;28;20557;-76
2023/01/24 01:19:46;;;;;;;36.97;16.00;;;;;;;-0.85;100.00;103058.47;5005273;28;20204;-75
2023/01/24 01:22:12;;;;;;;31.73;16.10;;;;;;;-0.85;100.00;103061.91;5023316;28;20236;-76
2023/01/24 01:24:40;;;;;;;31.43;15.87;;;;;;;-0.85;100.00;103064.47;5017462;28;20609;-76
2023/01/24 01:27:07;;;;;;;34.30;16.17;;;;;;;-0.85;100.00;103061.03;5017487;28;20207;-74
2023/01/24 01:29:35;;;;;;;37.77;16.37;;;;;;;-0.87;100.00;103062.63;5009494;28;20207;-73
2023/01/24 01:34:53;;;;;;;33.80;15.13;;;;;;;-0.88;100.00;103059.19;5002098;28;20313;-76
2023/01/24 01:37:20;;;;;;;37.50;15.90;;;;;;;-0.86;100.00;103062.72;5004834;28;20274;-76
2023/01/24 01:39:47;;;;;;;31.90;16.17;;;;;;;-0.87;100.00;103067.75;5017828;28;20203;-76
2023/01/24 01:42:14;;;;;;;33.03;17.20;;;;;;;-0.86;100.00;103072.97;5001669;28;20223;-76
2023/01/24 01:44:46;;;;;;;30.63;15.53;;;;;;;-0.85;100.00;103071.28;5021200;28;20199;-76
2023/01/24 01:47:19;;;;;;;30.50;15.80;;;;;;;-0.85;100.00;103068.72;5004760;28;20256;-76
2023/01/24 01:49:50;;;;;;;34.53;16.47;;;;;;;-0.89;100.00;103075.34;5015877;28;20492;-76
2023/01/24 01:52:17;;;;;;;32.80;16.33;;;;;;;-0.89;100.00;103059.97;5024394;28;20226;-76
2023/01/24 01:54:47;;;;;;;34.17;17.00;;;;;;;-0.89;100.00;103057.41;5003808;28;20582;-76
2023/01/24 01:57:16;;;;;;;34.57;16.83;;;;;;;-0.91;100.00;103053.88;5021824;28;20222;-75
2023/01/24 01:59:51;;;;;;;29.33;14.80;;;;;;;-0.90;100.00;103057.31;5007905;28;20263;-72
2023/01/24 02:02:21;;;;;;;33.27;16.60;;;;;;;-0.90;100.00;103057.31;5004612;28;20226;-76
2023/01/24 02:04:52;;;;;;;33.80;15.73;;;;;;;-0.90;100.00;103047.94;5017905;28;20228;-74
2023/01/24 02:07:21;;;;;;;36.13;16.63;;;;;;;-0.91;100.00;103055.56;5007826;28;20211;-76
2023/01/24 02:09:50;;;;;;;41.97;18.40;;;;;;;-0.90;100.00;103055.63;5003796;28;20204;-74
2023/01/24 02:12:20;;;;;;;37.37;17.20;;;;;;;-0.92;100.00;103054.66;5004798;28;20236;-76
2023/01/24 02:17:36;;;;;;;33.63;16.30;;;;;;;-0.93;100.00;103058.03;5019757;28;20211;-75
2023/01/24 02:20:22;;;;;;;31.13;15.37;;;;;;;-0.91;100.00;103053.00;5020129;28;20211;-76
2023/01/24 02:22:57;;;;;;;33.07;15.43;;;;;;;-0.92;100.00;103062.34;5002397;28;20220;-75
2023/01/24 02:25:31;;;;;;;36.13;17.43;;;;;;;-0.91;100.00;103061.56;5019999;28;20668;-76
2023/01/24 02:28:00;;;;;;;40.10;17.83;;;;;;;-0.91;100.00;103063.25;5020945;28;20191;-76
2023/01/24 02:30:27;;;;;;;35.27;16.20;;;;;;;-0.92;100.00;103057.22;5017495;28;20212;-76
2023/01/24 02:32:53;;;;;;;33.93;15.80;;;;;;;-0.93;100.00;103060.59;5005675;28;20216;-76
2023/01/24 02:35:26;;;;;;;39.87;18.43;;;;;;;-0.92;100.00;103057.22;5021734;28;20199;-75
2023/01/24 02:37:52;;;;;;;40.83;17.23;;;;;;;-0.94;100.00;103063.94;5010865;28;20203;-76
2023/01/24 02:40:19;;;;;;;40.07;17.80;;;;;;;-0.95;100.00;103054.47;5004977;28;20192;-76
2023/01/24 02:42:47;;;;;;;37.20;17.43;;;;;;;-0.94;100.00;103060.50;5005303;28;20311;-75
2023/01/24 02:45:20;;;;;;;37.33;17.17;;;;;;;-0.92;100.00;103069.16;5005334;28;20199;-75
2023/01/24 02:47:49;;;;;;;37.07;17.73;;;;;;;-0.91;100.00;103063.25;4997446;28;20204;-76
2023/01/24 02:50:18;;;;;;;37.20;17.40;;;;;;;-0.93;100.00;103059.69;5006960;28;20211;-74
2023/01/24 02:55:29;;;;;;;36.97;18.50;;;;;;;-0.92;100.00;103059.78;5009866;28;20227;-76
2023/01/24 02:58:07;;;;;;;38.93;17.63;;;;;;;-0.93;100.00;103058.03;5020196;28;20263;-76
2023/01/24 03:00:40;;;;;;;32.80;17.23;;;;;;;-0.94;100.00;103056.25;5007803;28;20696;-76
2023/01/24 03:03:08;;;;;;;35.93;16.80;;;;;;;-0.92;100.00;103056.34;5008863;28;20750;-77
2023/01/24 03:05:56;;;;;;;36.10;17.23;;;;;;;-0.92;100.00;103058.91;5025896;28;20278;-74
2023/01/24 03:08:23;;;;;;;33.57;16.53;;;;;;;-0.94;100.00;103056.25;5004378;28;20204;-76
2023/01/24 03:10:52;;;;;;;37.50;16.70;;;;;;;-0.94;100.00;103056.25;5005515;28;20201;-76
2023/01/24 03:35:17;;;;;;;40.90;17.73;;;;;;;-0.94;100.00;103047.69;5003332;28;20663;-76
2023/01/24 03:40:32;;;;;;;38.70;17.13;;;;;;;-0.96;100.00;103061.28;5002126;28;20224;-76
2023/01/24 03:43:01;;;;;;;43.63;18.87;;;;;;;-0.97;100.00;103051.84;5000903;28;20222;-76
2023/01/24 03:45:34;;;;;;;46.83;19.10;;;;;;;-0.94;100.00;103060.50;5005033;28;20200;-76
2023/01/24 03:48:09;;;;;;;40.10;18.80;;;;;;;-0.94;100.00;103058.81;5023589;28;20208;-74
2023/01/24 03:53:29;;;;;;;38.07;18.93;;;;;;;-0.96;100.00;103058.72;5005806;28;20286;-73
2023/01/24 03:55:57;;;;;;;49.83;20.73;;;;;;;-0.97;100.00;103062.09;5004901;28;20211;-73
2023/01/24 03:58:26;;;;;;;46.50;20.50;;;;;;;-0.97;100.00;103062.09;4999669;28;20282;-76
2023/01/24 04:00:54;;;;;;;43.87;19.50;;;;;;;-0.94;100.00;103055.38;5001877;28;20292;-76
2023/01/24 04:03:40;;;;;;;44.60;19.00;;;;;;;-0.94;100.00;103061.38;5006600;28;20545;-76
2023/01/24 04:06:07;;;;;;;42.63;20.43;;;;;;;-0.97;100.00;103063.75;5022549;28;20246;-76
2023/01/24 04:08:33;;;;;;;40.60;18.77;;;;;;;-0.97;100.00;103050.94;5019607;28;20208;-76
2023/01/24 04:11:00;;;;;;;48.43;19.50;;;;;;;-0.96;100.00;103058.72;5003901;28;20727;-76
2023/01/24 04:13:30;;;;;;;36.20;17.00;;;;;;;-0.95;100.00;103054.47;5006493;28;20196;-76
2023/01/24 04:15:58;;;;;;;45.23;18.13;;;;;;;-0.94;100.00;103056.25;5006411;28;20305;-76
2023/01/24 04:18:46;;;;;;;39.27;16.93;;;;;;;-0.97;100.00;103056.97;5007441;28;20192;-74
2023/01/24 04:21:13;;;;;;;39.83;18.00;;;;;;;-0.94;100.00;103052.81;5006825;28;20624;-75
2023/01/24 04:23:40;;;;;;;38.67;17.83;;;;;;;-0.93;100.00;103057.13;5004084;28;20561;-75
2023/01/24 04:26:06;;;;;;;46.10;18.07;;;;;;;-0.94;100.00;103053.69;5006410;28;20200;-77
2023/01/24 04:28:33;;;;;;;38.27;17.23;;;;;;;-0.93;100.00;103054.56;5007176;28;20227;-76
2023/01/24 04:31:03;;;;;;;37.07;17.20;;;;;;;-0.94;100.00;103046.00;5003715;28;20200;-76
2023/01/24 04:34:02;;;;;;;35.07;15.13;;;;;;;-0.94;100.00;103046.00;5006916;28;20223;-76
2023/01/24 04:36:30;;;;;;;38.17;18.60;;;;;;;-0.94;100.00;103047.69;5006547;28;20239;-76
2023/01/24 04:38:58;;;;;;;37.73;16.90;;;;;;;-0.95;100.00;103051.91;5005806;28;20239;-75
2023/01/24 04:41:30;;;;;;;38.07;16.20;;;;;;;-0.94;100.00;103053.69;5003814;28;20221;-76
2023/01/24 04:43:58;;;;;;;38.10;16.20;;;;;;;-0.93;100.00;103052.91;5020082;28;20223;-76
2023/01/24 04:46:25;;;;;;;39.50;16.77;;;;;;;-0.94;100.00;103050.25;5006357;28;20208;-76
2023/01/24 04:48:55;;;;;;;37.53;16.67;;;;;;;-0.96;100.00;103052.72;5017622;28;20207;-76
2023/01/24 04:51:31;;;;;;;33.73;16.47;;;;;;;-0.96;100.00;103051.03;5002373;28;20712;-76
2023/01/24 04:53:59;;;;;;;35.03;17.10;;;;;;;-0.97;100.00;103050.94;5020166;28;20208;-76
2023/01/24 04:56:29;;;;;;;37.20;16.77;;;;;;;-0.97;100.00;103049.28;5022853;28;20668;-76
2023/01/24 04:58:57;;;;;;;36.90;17.13;;;;;;;-0.95;100.00;103057.03;5008161;28;20204;-76
2023/01/24 05:01:24;;;;;;;39.27;17.43;;;;;;;-0.96;100.00;103050.16;5020197;28;20229;-75
2023/01/24 05:04:15;;;;;;;40.80;17.33;;;;;;;-0.96;100.00;103052.72;5011444;28;20196;-77
2023/01/24 05:06:43;;;;;;;36.57;17.67;;;;;;;-0.96;100.00;103057.84;5003874;28;20947;-76
2023/01/24 05:09:10;;;;;;;38.77;17.23;;;;;;;-0.97;100.00;103054.41;5012986;28;20195;-76
2023/01/24 05:11:47;;;;;;;40.57;16.93;;;;;;;-0.96;100.00;103058.72;5000697;28;21032;-76
2023/01/24 05:14:14;;;;;;;35.93;16.17;;;;;;;-0.95;100.00;103054.47;4999498;28;20212;-75
2023/01/24 05:16:40;;;;;;;36.90;17.40;;;;;;;-0.96;100.00;103051.03;5001028;28;20208;-75
2023/01/24 05:19:07;;;;;;;37.63;17.93;;;;;;;-0.96;100.00;103058.72;5002883;28;20202;-75
2023/01/24 05:21:35;;;;;;;39.07;17.60;;;;;;;-0.96;100.00;103056.16;5001222;28;20641;-74
2023/01/24 05:24:05;;;;;;;36.33;15.93;;;;;;;-0.96;100.00;103058.72;4999522;28;20207;-73
2023/01/24 05:26:32;;;;;;;40.93;18.00;;;;;;;-0.91;100.00;103060.69;5007149;28;20266;-76
2023/01/24 05:29:00;;;;;;;36.23;16.87;;;;;;;-0.93;100.00;103059.69;5002584;28;20238;-75
2023/01/24 05:31:29;;;;;;;40.47;17.10;;;;;;;-0.94;100.00;103057.94;5004812;28;20723;-74
2023/01/24 05:33:56;;;;;;;36.20;16.80;;;;;;;-0.93;100.00;103065.72;5001497;28;20467;-76
2023/01/24 05:36:24;;;;;;;40.93;16.90;;;;;;;-0.95;100.00;103059.59;5014971;28;20196;-76
2023/01/24 05:38:51;;;;;;;38.63;16.83;;;;;;;-0.95;100.00;103067.28;5001775;28;20195;-75
2023/01/24 05:41:20;;;;;;;38.23;16.00;;;;;;;-0.95;100.00;103069.84;5001368;28;20600;-76
2023/01/24 05:43:50;;;;;;;42.67;17.87;;;;;;;-0.94;100.00;103075.88;4997164;28;20197;-75
2023/01/24 05:46:22;;;;;;;39.93;18.17;;;;;;;-0.93;100.00;103077.63;5021670;28;20215;-76
2023/01/24 05:48:59;;;;;;;41.50;18.30;;;;;;;-0.94;100.00;103071.63;5020394;28;20198;-76
2023/01/24 05:51:26;;;;;;;39.27;16.97;;;;;;;-0.94;100.00;103063.94;5018911;28;20227;-75
2023/01/24 05:53:52;;;;;;;42.70;17.17;;;;;;;-0.95;100.00;103062.16;5018647;28;20290;-74
2023/01/24 05:56:46;;;;;;;44.77;18.87;;;;;;;-0.94;100.00;103063.94;5034835;28;20208;-73
2023/01/24 05:59:13;;;;;;;35.90;17.00;;;;;;;-0.93;100.00;103064.81;5034348;28;20564;-75
2023/01/24 06:01:40;;;;;;;35.63;17.63;;;;;;;-0.95;100.00;103057.03;5039308;22;20610;-74
2023/01/24 06:04:08;;;;;;;37.40;17.80;;;;;;;-0.93;100.00;103059.69;5039249;28;20707;-74
2023/01/24 06:06:34;;;;;;;37.53;16.70;;;;;;;-0.96;100.00;103060.41;5035488;28;20221;-75
2023/01/24 06:09:02;;;;;;;38.13;17.43;;;;;;;-0.94;100.00;103056.25;5039854;28;20714;-76
2023/01/24 06:11:29;;;;;;;37.97;16.13;;;;;;;-0.96;100.00;103058.72;5058975;28;20198;-75
2023/01/24 06:14:09;;;;;;;38.57;17.10;;;;;;;-0.95;100.00;103062.16;5027480;28;20232;-75
2023/01/24 06:16:36;;;;;;;43.17;18.00;;;;;;;-0.92;100.00;103070.03;5046655;28;20197;-74
2023/01/24 06:19:03;;;;;;;37.20;17.87;;;;;;;-0.94;100.00;103075.88;5023821;28;20237;-74
2023/01/24 06:21:43;;;;;;;35.47;16.43;;;;;;;-0.91;100.00;103078.63;5032717;28;20671;-74
2023/01/24 06:24:18;;;;;;;37.70;17.30;;;;;;;-0.91;100.00;103076.06;5025834;28;20206;-74
2023/01/24 06:26:54;;;;;;;37.27;16.23;;;;;;;-0.93;100.00;103090.44;5022159;28;20659;-74
2023/01/24 06:29:23;;;;;;;35.90;16.60;;;;;;;-0.94;100.00;103084.44;5044561;28;20195;-74
2023/01/24 06:32:00;;;;;;;40.17;17.33;;;;;;;-0.91;100.00;103092.31;5039755;28;20226;-74
2023/01/24 06:34:47;;;;;;;30.20;15.10;;;;;;;-0.92;100.00;103093.09;5023473;28;20203;-74
2023/01/24 06:37:18;;;;;;;38.17;17.03;;;;;;;-0.92;100.00;103094.78;5041934;28;20278;-74
2023/01/24 06:39:52;;;;;;;34.13;17.10;;;;;;;-0.94;100.00;103094.66;5046865;28;20194;-74
2023/01/24 06:42:19;;;;;;;32.40;15.53;;;;;;;-0.91;100.00;103097.44;5041375;28;20301;-74
2023/01/24 06:44:47;;;;;;;33.97;14.67;;;;;;;-0.90;100.00;103101.75;5024345;28;20428;-73
2023/01/24 06:47:14;;;;;;;41.20;18.97;;;;;;;-0.91;100.00;103099.13;5046238;28;20202;-74
2023/01/24 06:49:41;;;;;;;37.10;15.93;;;;;;;-0.91;100.00;103104.25;5047357;28;20213;-74
2023/01/24 06:52:08;;;;;;;34.37;16.27;;;;;;;-0.94;100.00;103104.91;5045204;28;20211;-74
2023/01/24 06:54:35;;;;;;;36.37;16.17;;;;;;;-0.92;100.00;103107.56;5040918;28;20207;-74
2023/01/24 06:57:03;;;;;;;41.23;17.43;;;;;;;-0.91;100.00;103111.91;5044610;28;20198;-74
2023/01/24 06:59:29;;;;;;;36.77;17.40;;;;;;;-0.92;100.00;103115.25;5051173;28;20206;-74
2023/01/24 07:01:57;;;;;;;43.37;18.20;;;;;;;-0.93;100.00;103109.25;5039741;28;20219;-74
2023/01/24 07:04:23;;;;;;;40.60;17.77;;;;;;;-0.92;100.00;103116.13;5023918;28;20567;-74
2023/01/24 07:06:52;;;;;;;41.23;18.10;;;;;;;-0.90;100.00;103121.34;5043790;28;20199;-74
2023/01/24 07:09:18;;;;;;;40.27;18.53;;;;;;;-0.92;100.00;103116.13;5045094;28;20195;-74
2023/01/24 07:11:47;;;;;;;37.47;17.60;;;;;;;-0.91;100.00;103117.03;5044220;28;20226;-74
2023/01/24 07:14:14;;;;;;;43.07;18.13;;;;;;;-0.92;100.00;103115.25;5041665;28;20192;-74
2023/01/24 07:16:40;;;;;;;41.63;17.80;;;;;;;-0.90;100.00;103126.47;5024069;28;20246;-74
2023/01/24 07:19:14;;;;;;;33.03;16.13;;;;;;;-0.89;100.00;103125.69;5049793;28;20563;-74
2023/01/24 07:21:41;;;;;;;41.00;18.43;;;;;;;-0.90;100.00;103119.66;5045911;28;20263;-74
2023/01/24 07:24:13;;;;;;;36.73;16.53;;;;;;;-0.88;100.00;103123.25;5027248;28;20715;-75
2023/01/24 07:26:39;;;;;;;36.90;17.30;;;;;;;-0.87;100.00;103126.66;5044255;28;20199;-74
2023/01/24 07:29:06;;;;;;;40.30;16.10;;;;;;;-0.87;100.00;103136.91;5049277;28;20199;-74
2023/01/24 07:31:33;;;;;;;41.07;18.73;;;;;;;-0.87;100.00;103136.91;5043868;28;20556;-74
2023/01/24 07:34:00;;;;;;;42.43;16.43;;;;;;;-0.89;100.00;103131.69;5047206;28;20195;-74
2023/01/24 07:36:29;;;;;;;38.00;16.37;;;;;;;-0.88;100.00;103141.16;5044563;28;20218;-74
2023/01/24 07:38:56;;;;;;;36.13;17.47;;;;;;;-0.88;100.00;103138.59;5040896;28;20287;-74
2023/01/24 07:41:23;;;;;;;33.93;15.83;;;;;;;-0.86;100.00;103144.69;5031595;28;20218;-74
2023/01/24 07:43:53;;;;;;;41.03;18.30;;;;;;;-0.85;100.00;103146.44;5029555;28;20206;-74
2023/01/24 07:46:21;;;;;;;35.57;17.73;;;;;;;-0.89;100.00;103144.50;5048582;28;20199;-74
2023/01/24 07:48:47;;;;;;;43.70;17.77;;;;;;;-0.86;100.00;103138.66;5029051;28;20195;-74
2023/01/24 07:51:13;;;;;;;43.90;24.67;;;;;;;-0.84;100.00;103144.81;5022973;28;20713;-74
2023/01/24 07:53:41;;;;;;;38.63;16.97;;;;;;;-0.84;100.00;103147.38;5050219;28;20215;-74
2023/01/24 07:56:08;;;;;;;37.57;17.43;;;;;;;-0.85;100.00;103141.34;5029676;28;20218;-74
2023/01/24 07:58:35;;;;;;;35.03;15.57;;;;;;;-0.83;100.00;103144.88;5044011;28;20203;-74
2023/01/24 08:01:02;;;;;;;40.00;16.60;;;;;;;-0.81;100.00;103151.00;5020976;28;20901;-74
2023/01/24 08:03:28;;;;;;;40.23;16.60;;;;;;;-0.79;100.00;103149.41;5045289;28;20602;-74
2023/01/24 08:05:55;;;;;;;36.80;17.53;;;;;;;-0.78;100.00;103148.59;5025059;28;20201;-74
2023/01/24 08:08:22;;;;;;;36.77;16.73;;;;;;;-0.78;100.00;103145.16;5023060;28;20207;-74
2023/01/24 08:10:49;;;;;;;40.30;16.20;;;;;;;-0.77;100.00;103157.19;5046322;28;20203;-75
2023/01/24 08:13:16;;;;;;;37.17;17.43;;;;;;;-0.77;100.00;103155.50;5038981;28;20229;-74
2023/01/24 08:15:42;;;;;;;36.53;15.80;;;;;;;-0.78;100.00;103168.22;5049141;28;20257;-74
2023/01/24 08:18:09;;;;;;;35.10;17.10;;;;;;;-0.80;100.00;103165.56;5046199;28;20199;-74
2023/01/24 08:20:35;;;;;;;39.27;17.80;;;;;;;-0.77;100.00;103162.31;5023301;28;20204;-74
2023/01/24 08:23:02;;;;;;;35.97;18.20;;;;;;;-0.75;100.00;103159.84;5046805;28;20696;-74
2023/01/24 08:25:31;;;;;;;35.37;16.63;;;;;;;-0.75;100.00;103155.59;5034170;28;20357;-74
2023/01/24 08:27:59;;;;;;;40.97;16.90;;;;;;;-0.71;100.00;103159.22;5045584;28;20204;-74
2023/01/24 08:30:25;;;;;;;37.97;17.10;;;;;;;-0.71;100.00;103149.84;5028062;28;20208;-74
2023/01/24 08:32:59;;;;;;;42.10;18.33;;;;;;;-0.73;100.00;103146.31;5053893;28;20684;-74
2023/01/24 08:35:26;;;;;;;36.00;17.80;;;;;;;-0.70;100.00;103141.38;5041930;28;20699;-74
2023/01/24 08:37:52;;;;;;;39.23;16.97;;;;;;;-0.68;100.00;103144.94;5046075;28;20583;-74
2023/01/24 08:40:19;;;;;;;39.77;18.77;;;;;;;-0.64;100.00;103143.44;5029691;28;20243;-74
2023/01/24 08:42:45;;;;;;;37.97;18.07;;;;;;;-0.62;100.00;103154.66;5042656;28;20227;-74
2023/01/24 08:45:13;;;;;;;39.33;17.57;;;;;;;-0.61;100.00;103148.75;5048402;28;20208;-74
2023/01/24 08:47:40;;;;;;;36.93;16.87;;;;;;;-0.61;100.00;103149.63;5026028;28;20206;-74
2023/01/24 08:50:08;;;;;;;35.53;16.30;;;;;;;-0.59;100.00;103145.47;5047316;28;20204;-74
2023/01/24 08:52:34;;;;;;;38.37;16.97;;;;;;;-0.55;100.00;103143.09;5047892;28;20226;-74
2023/01/24 08:55:00;;;;;;;41.57;18.77;;;;;;;-0.53;100.00;103149.19;5054035;28;20462;-74
2023/01/24 08:57:27;;;;;;;38.10;17.93;;;;;;;-0.50;100.00;103149.38;5048806;28;20203;-74
2023/01/24 08:59:53;;;;;;;39.47;17.47;;;;;;;-0.51;100.00;103150.16;5047801;28;20679;-74
2023/01/24 09:02:21;;;;;;;32.63;16.03;;;;;;;-0.50;100.00;103154.50;5046631;28;20661;-75
2023/01/24 09:04:47;;;;;;;34.87;16.33;;;;;;;-0.49;100.00;103164.88;5047434;28;20195;-74
2023/01/24 09:07:15;;;;;;;38.30;17.53;;;;;;;-0.45;100.00;103161.69;5046044;28;20563;-74
2023/01/24 09:09:41;;;;;;;37.37;16.77;;;;;;;-0.42;100.00;103163.56;5052532;28;20248;-74
2023/01/24 09:12:08;;;;;;;34.90;16.73;;;;;;;-0.42;100.00;103161.88;5030045;28;20285;-74
2023/01/24 09:14:34;;;;;;;39.40;18.47;;;;;;;-0.44;100.00;103171.16;5032047;28;20203;-74
2023/01/24 09:17:00;;;;;;;38.87;18.00;;;;;;;-0.42;100.00;103177.25;5050940;28;20229;-74
2023/01/24 09:19:28;;;;;;;41.43;17.57;;;;;;;-0.43;100.00;103172.91;5042442;28;20271;-74
2023/01/24 09:21:56;;;;;;;38.90;17.33;;;;;;;-0.41;100.00;103165.31;5048025;28;20217;-74
2023/01/24 09:24:23;;;;;;;39.07;18.17;;;;;;;-0.38;100.00;103170.63;5044183;28;20215;-74
2023/01/24 09:26:50;;;;;;;43.93;18.53;;;;;;;-0.34;100.00;103167.44;5041302;28;20285;-74
2023/01/24 09:29:17;;;;;;;44.10;18.07;;;;;;;-0.34;100.00;103170.00;5028541;28;20202;-74
2023/01/24 09:31:44;;;;;;;39.93;16.00;;;;;;;-0.31;100.00;103172.75;5043257;28;20323;-74
2023/01/24 09:34:10;;;;;;;42.00;18.37;;;;;;;-0.32;100.00;103173.53;5039280;28;20234;-74
2023/01/24 09:36:38;;;;;;;43.00;16.80;;;;;;;-0.31;100.00;103171.88;5052265;28;20703;-74
2023/01/24 09:39:04;;;;;;;34.33;16.37;;;;;;;-0.26;100.00;103167.91;5046031;28;20663;-74
2023/01/24 09:41:42;;;;;;;35.20;17.40;;;;;;;-0.25;100.00;103162.84;5031813;28;20211;-74
2023/01/24 09:44:17;;;;;;;41.77;16.97;;;;;;;-0.18;100.00;103158.97;5055391;28;20219;-74
2023/01/24 09:46:48;;;;;;;37.87;16.90;;;;;;;-0.17;100.00;103165.88;5047769;28;20199;-74
2023/01/24 09:49:22;;;;;;;40.20;18.30;;;;;;;-0.20;100.00;103166.56;5041194;28;20204;-74
2023/01/24 09:51:53;;;;;;;41.40;18.70;;;;;;;-0.17;100.00;103162.44;5043431;28;20595;-74
2023/01/24 09:54:32;;;;;;;37.57;16.50;;;;;;;-0.14;100.00;103162.59;5039870;28;20208;-74
2023/01/24 09:56:58;;;;;;;37.90;16.60;;;;;;;-0.12;100.00;103164.47;5045769;28;20211;-74
2023/01/24 09:59:38;;;;;;;41.37;18.47;;;;;;;-0.12;100.00;103161.00;5046316;28;20659;-74
2023/01/24 10:02:16;;;;;;;39.80;17.53;;;;;;;-0.09;100.00;103153.50;5043111;28;20265;-74
2023/01/24 10:04:43;;;;;;;41.53;17.57;;;;;;;-0.08;100.00;103157.84;5040943;28;20203;-74
2023/01/24 10:07:30;;;;;;;41.70;19.93;;;;;;;-0.07;100.00;103160.50;5026647;28;20207;-74
2023/01/24 10:10:07;;;;;;;36.13;17.27;;;;;;;-0.08;100.00;103152.72;5021331;28;20214;-74
2023/01/24 10:12:44;;;;;;;39.03;19.47;;;;;;;-0.06;100.00;103153.69;5028697;28;20246;-74
2023/01/24 10:15:25;;;;;;;42.77;20.03;;;;;;;-0.06;100.00;103143.41;5043158;28;20199;-74
2023/01/24 10:18:15;;;;;;;38.23;17.37;;;;;;;-0.05;100.00;103147.75;5041348;28;20214;-74
2023/01/24 10:20:53;;;;;;;37.47;17.80;;;;;;;-0.05;100.00;103145.19;5040184;28;20686;-74
2023/01/24 10:23:27;;;;;;;36.83;17.17;;;;;;;-0.03;100.00;103154.72;5042601;28;20596;-74
2023/01/24 10:25:58;;;;;;;40.67;18.13;;;;;;;-0.01;100.00;103153.13;5023878;28;20892;-74
2023/01/24 10:28:28;;;;;;;37.83;17.93;;;;;;;-0.01;100.00;103145.44;5024130;28;20663;-74
2023/01/24 10:31:02;;;;;;;43.53;17.13;;;;;;;0.04;100.00;103148.28;5036795;28;20568;-74
2023/01/24 10:33:33;;;;;;;36.27;16.83;;;;;;;0.00;100.00;103156.63;5038770;28;20281;-74
2023/01/24 10:38:57;;;;;;;34.40;17.43;;;;;;;0.03;100.00;103153.31;5041185;28;20192;-74
2023/01/24 10:41:25;;;;;;;40.47;18.03;;;;;;;-0.01;100.00;103152.25;5045757;28;20551;-74
2023/01/24 10:43:56;;;;;;;40.03;17.93;;;;;;;0.02;100.00;103147.31;5043735;28;20302;-74
2023/01/24 10:47:08;;;;;;;40.10;17.77;;;;;;;0.01;100.00;103149.78;5039343;28;20705;-74
2023/01/24 10:49:37;;;;;;;37.37;18.07;;;;;;;0.02;100.00;103156.66;4968068;28;20209;-74
2023/01/24 10:52:16;;;;;;;38.87;17.50;;;;;;;0.02;100.00;103152.44;5031949;28;20616;-74
2023/01/24 10:54:51;;;;;;;39.30;17.30;;;;;;;0.02;100.00;103147.31;5043521;28;20225;-74
2023/01/24 10:57:20;;;;;;;41.70;17.37;;;;;;;-0.01;100.00;103142.88;5034906;28;20721;-74
2023/01/24 10:59:47;;;;;;;36.93;17.30;;;;;;;-0.01;100.00;103150.56;5049515;28;20200;-74
2023/01/24 11:02:22;;;;;;;39.90;17.97;;;;;;;0.01;100.00;103137.84;5049764;28;20639;-74
2023/01/24 11:04:53;;;;;;;41.93;17.13;;;;;;;0.02;100.00;103142.19;5047190;28;20309;-73
2023/01/24 11:07:28;;;;;;;40.47;17.30;;;;;;;0.01;100.00;103149.78;5050558;28;20207;-74
2023/01/24 11:09:59;;;;;;;34.90;16.97;;;;;;;0.02;100.00;103131.94;5050181;28;20202;-74
2023/01/24 11:12:26;;;;;;;34.87;16.10;;;;;;;0.03;100.00;103136.25;5051246;28;20222;-74
2023/01/24 11:14:52;;;;;;;33.50;16.73;;;;;;;0.08;100.00;103137.38;5050433;28;20203;-74
2023/01/24 11:17:33;;;;;;;41.43;17.77;;;;;;;0.06;100.00;103125.28;5051136;28;20218;-74
2023/01/24 11:20:05;;;;;;;32.03;16.63;;;;;;;0.04;100.00;103129.44;5047574;28;20286;-74
2023/01/24 11:22:34;;;;;;;31.53;16.83;;;;;;;0.05;100.00;103120.94;5028651;28;20222;-74
2023/01/24 11:25:09;;;;;;;35.03;17.03;;;;;;;0.06;100.00;103121.03;5031762;28;20203;-74
2023/01/24 11:27:45;;;;;;;34.83;15.53;;;;;;;0.04;100.00;103119.19;5051301;28;20575;-74
2023/01/24 11:30:16;;;;;;;51.90;20.50;;;;;;;0.02;100.00;103125.88;5043435;28;20642;-74
2023/01/24 11:32:53;;;;;;;45.77;20.17;;;;;;;0.01;100.00;103125.00;5042304;28;20228;-73
2023/01/24 11:35:24;;;;;;;36.43;16.73;;;;;;;0.03;100.00;103125.09;5046031;28;20202;-76
2023/01/24 11:38:06;;;;;;;37.03;16.73;;;;;;;0.01;100.00;103114.75;5044711;28;20212;-74
2023/01/24 11:40:40;;;;;;;31.13;15.53;;;;;;;0.02;100.00;103115.63;5029259;28;20594;-74
2023/01/24 11:43:23;;;;;;;41.37;17.13;;;;;;;0.04;100.00;103107.25;5056102;28;20207;-74
2023/01/24 11:46:08;;;;;;;38.37;16.57;;;;;;;0.02;100.00;103106.28;5048601;28;20668;-74
2023/01/24 11:48:44;;;;;;;67.77;22.83;;;;;;;0.07;100.00;103109.97;5044351;28;20191;-74
2023/01/24 11:51:20;;;;;;;47.87;20.20;;;;;;;0.06;100.00;103104.75;5048911;28;20594;-74
2023/01/24 11:54:02;;;;;;;39.10;16.93;;;;;;;0.04;100.00;103117.50;5043541;28;20198;-74